createdAt,value
2022-12-23T08:13:45.247Z,6.40
2022-12-23T08:15:47.110Z,6.80
2022-12-23T08:17:49.046Z,6.90
2022-12-23T08:19:50.940Z,6.80
2022-12-23T08:21:52.786Z,6.90
2022-12-23T08:23:54.715Z,7.00
2022-12-23T08:26:05.179Z,6.90
2022-12-23T08:28:07.039Z,6.80
2022-12-23T08:30:09.644Z,6.80
2022-12-23T08:32:11.921Z,6.90
2022-12-23T08:34:14.460Z,6.80
2022-12-23T08:36:23.007Z,6.80
2022-12-23T08:38:25.557Z,6.90
2022-12-23T08:40:27.454Z,7.10
2022-12-23T08:42:29.344Z,7.00
2022-12-23T08:44:32.727Z,7.10
2022-12-23T08:46:35.343Z,7.20
2022-12-23T08:48:37.894Z,7.30
2022-12-23T08:50:41.798Z,7.40
2022-12-23T08:52:43.696Z,7.30
2022-12-23T08:54:45.691Z,7.30
2022-12-23T08:56:47.807Z,7.50
2022-12-23T08:58:50.974Z,7.40
2022-12-23T09:00:52.889Z,7.30
2022-12-23T09:02:54.890Z,7.30
2022-12-23T09:04:56.746Z,7.30
2022-12-23T09:06:58.640Z,7.20
2022-12-23T09:09:00.786Z,7.30
2022-12-23T09:11:03.073Z,7.50
2022-12-23T09:13:05.072Z,7.60
2022-12-23T09:15:07.309Z,7.20
2022-12-23T09:17:09.183Z,7.20
2022-12-23T09:19:11.107Z,7.10
2022-12-23T09:21:15.751Z,7.10
2022-12-23T09:23:17.609Z,7.20
2022-12-23T09:25:19.444Z,7.30
2022-12-23T09:27:21.360Z,7.30
2022-12-23T09:29:23.319Z,7.40
2022-12-23T09:31:30.455Z,7.30
2022-12-23T09:33:34.621Z,7.30
2022-12-23T09:35:36.379Z,7.40
2022-12-23T09:37:38.237Z,7.30
2022-12-23T09:39:40.142Z,7.30
2022-12-23T09:42:16.575Z,7.50
2022-12-23T09:44:33.275Z,7.30
2022-12-23T09:46:43.018Z,7.40
2022-12-23T09:49:09.522Z,7.40
2022-12-23T09:51:12.987Z,7.30
2022-12-23T09:53:21.593Z,7.40
2022-12-23T09:55:31.645Z,7.30
2022-12-23T09:57:41.987Z,7.30
2022-12-23T09:59:46.593Z,7.40
2022-12-23T10:02:03.975Z,7.40
2022-12-23T10:04:27.538Z,7.40
2022-12-23T10:06:30.955Z,7.40
2022-12-23T10:08:44.659Z,7.30
2022-12-23T10:10:54.202Z,7.20
2022-12-23T10:12:56.723Z,7.20
2022-12-23T10:15:02.676Z,7.30
2022-12-23T10:17:14.744Z,7.40
2022-12-23T10:19:35.539Z,7.50
2022-12-23T10:21:47.971Z,7.50
2022-12-23T10:37:29.551Z,7.70
2022-12-23T10:39:41.821Z,7.80
2022-12-23T10:41:43.656Z,7.50
2022-12-23T10:44:22.310Z,7.50
2022-12-23T10:46:33.302Z,7.60
2022-12-23T10:48:55.036Z,7.60
2022-12-23T10:51:19.183Z,7.60
2022-12-23T10:53:33.603Z,7.80
2022-12-23T10:55:40.843Z,7.90
2022-12-23T10:57:43.154Z,7.90
2022-12-23T10:59:45.727Z,7.70
2022-12-23T11:01:54.206Z,7.60
2022-12-23T11:04:08.911Z,7.60
2022-12-23T11:06:12.730Z,7.60
2022-12-23T11:08:14.803Z,7.60
2022-12-23T11:10:22.325Z,7.60
2022-12-23T11:12:40.503Z,7.70
2022-12-23T11:14:53.085Z,7.90
2022-12-23T11:16:55.037Z,7.90
2022-12-23T11:19:00.537Z,8.00
2022-12-23T11:21:04.998Z,7.80
2022-12-23T11:23:23.263Z,7.70
2022-12-23T11:25:38.563Z,7.80
2022-12-23T11:27:44.650Z,7.80
2022-12-23T11:29:54.319Z,7.80
2022-12-23T11:31:56.457Z,7.90
2022-12-23T11:33:59.839Z,7.80
2022-12-23T11:36:02.504Z,7.70
2022-12-23T11:38:04.596Z,7.60
2022-12-23T11:40:10.411Z,7.70
2022-12-23T11:42:17.487Z,7.60
2022-12-23T11:44:28.038Z,7.70
2022-12-23T11:46:32.992Z,7.80
2022-12-23T11:48:34.872Z,7.90
2022-12-23T11:50:40.081Z,7.70
2022-12-23T11:52:51.327Z,7.60
2022-12-23T11:54:56.039Z,7.60
2022-12-23T11:56:59.108Z,7.50
2022-12-23T11:59:09.960Z,7.50
2022-12-23T14:15:27.248Z,6.80
2022-12-23T14:17:45.379Z,6.90
2022-12-23T14:20:30.848Z,6.80
2022-12-23T14:22:41.191Z,6.80
2022-12-23T14:25:01.679Z,6.70
2022-12-23T14:27:42.393Z,6.70
2022-12-23T14:30:19.207Z,6.60
2022-12-23T14:32:28.819Z,6.60
2022-12-23T14:34:33.159Z,6.60
2022-12-23T14:36:35.602Z,6.50
2022-12-23T14:38:37.991Z,6.50
2022-12-23T14:40:39.861Z,6.50
2022-12-23T14:42:43.495Z,6.50
2022-12-23T14:44:49.802Z,6.50
2022-12-23T14:46:53.377Z,6.50
2022-12-23T14:49:15.859Z,6.40
2022-12-23T14:51:35.599Z,6.50
2022-12-23T14:53:52.536Z,6.50
2022-12-23T14:56:16.890Z,6.40
2022-12-23T14:58:20.112Z,6.40
2022-12-23T15:00:23.214Z,6.40
2022-12-23T15:02:37.524Z,6.30
2022-12-23T15:04:47.987Z,6.30
2022-12-23T15:06:55.123Z,6.30
2022-12-23T15:08:57.464Z,6.20
2022-12-23T15:10:59.911Z,6.20
2022-12-23T15:13:06.272Z,6.20
2022-12-23T15:15:15.754Z,6.20
2022-12-23T15:17:30.646Z,6.20
2022-12-23T15:19:33.354Z,6.20
2022-12-23T15:21:36.478Z,6.20
2022-12-23T15:23:38.323Z,6.10
2022-12-23T15:25:46.651Z,6.10
2022-12-23T15:27:49.160Z,6.20
2022-12-23T15:29:54.185Z,6.30
2022-12-23T15:31:58.616Z,6.20
2022-12-23T15:34:10.224Z,6.20
2022-12-23T15:36:27.596Z,6.20
2022-12-23T15:38:32.146Z,6.20
2022-12-23T15:40:38.541Z,6.20
2022-12-23T15:42:48.042Z,6.30
2022-12-23T15:44:50.077Z,6.30
2022-12-23T15:46:52.453Z,6.30
2022-12-23T15:48:54.961Z,6.30
2022-12-23T15:51:05.803Z,6.30
2022-12-23T15:53:09.806Z,6.20
2022-12-23T15:55:22.417Z,6.20
2022-12-23T15:57:27.348Z,6.20
2022-12-23T15:59:34.588Z,6.20
2022-12-23T16:01:41.027Z,6.20
2022-12-23T16:03:50.484Z,6.40
2022-12-23T16:05:53.074Z,6.30
2022-12-23T16:08:21.703Z,6.30
2022-12-23T16:10:28.823Z,6.20
2022-12-23T16:12:32.991Z,6.10
2022-12-23T16:14:38.259Z,6.10
2022-12-23T16:16:42.405Z,6.10
2022-12-23T16:18:47.545Z,6.20
2022-12-23T16:20:56.197Z,6.20
2022-12-23T16:23:01.906Z,6.30
2022-12-23T16:25:12.291Z,6.20
2022-12-23T16:27:17.652Z,6.20
2022-12-23T16:29:19.697Z,6.20
2022-12-23T16:31:23.357Z,6.20
2022-12-23T16:33:39.741Z,6.20
2022-12-23T16:35:43.428Z,6.60
2022-12-23T16:37:50.853Z,6.70
2022-12-23T16:39:54.052Z,6.50
2022-12-23T16:41:55.991Z,6.30
2022-12-23T16:43:58.492Z,6.20
2022-12-23T16:46:00.721Z,6.20
2022-12-23T16:48:08.291Z,6.20
2022-12-23T16:50:14.367Z,6.40
2022-12-23T16:52:16.430Z,6.20
2022-12-23T16:54:19.524Z,6.40
2022-12-23T16:56:23.913Z,6.40
2022-12-23T16:58:26.177Z,6.30
2022-12-23T17:00:28.170Z,6.30
2022-12-23T17:02:30.151Z,6.40
2022-12-23T17:04:32.080Z,6.30
2022-12-23T17:06:35.995Z,6.30
2022-12-23T17:08:37.962Z,6.20
2022-12-23T17:10:41.922Z,6.30
2022-12-23T17:12:46.475Z,6.30
2022-12-23T17:14:48.576Z,6.40
2022-12-23T17:16:51.008Z,6.30
2022-12-23T17:18:53.591Z,6.30
2022-12-23T17:20:56.044Z,6.30
2022-12-23T17:22:59.512Z,6.20
2022-12-23T17:25:02.074Z,6.20
2022-12-23T17:27:14.932Z,6.20
2022-12-23T17:29:17.734Z,6.30
2022-12-23T17:31:26.650Z,6.30
2022-12-23T17:33:32.185Z,6.30
2022-12-23T17:35:34.248Z,6.30
2022-12-23T17:37:38.308Z,6.20
2022-12-23T17:39:40.364Z,6.30
2022-12-23T17:41:42.497Z,6.30
2022-12-23T17:43:44.419Z,6.30
2022-12-23T17:45:47.158Z,6.30
2022-12-23T17:47:50.246Z,6.20
2022-12-23T17:49:52.385Z,6.30
2022-12-23T17:51:55.380Z,6.20
2022-12-23T17:54:03.873Z,6.20
2022-12-23T17:56:15.753Z,6.30
2022-12-23T17:58:17.846Z,6.20
2022-12-23T18:00:29.807Z,6.30
2022-12-23T20:19:56.832Z,6.20
2022-12-23T20:22:04.491Z,6.20
2022-12-23T20:24:09.952Z,6.20
2022-12-23T20:26:15.892Z,6.20
2022-12-23T20:28:21.096Z,6.20
2022-12-23T20:30:23.176Z,6.20
2022-12-23T20:32:25.035Z,6.20
2022-12-23T20:34:33.286Z,6.10
2022-12-23T20:36:40.506Z,6.10
2022-12-23T20:38:44.476Z,6.10
2022-12-23T20:40:46.420Z,6.20
2022-12-23T20:42:48.269Z,6.10
2022-12-23T20:44:50.913Z,6.20
2022-12-23T20:46:52.879Z,6.10
2022-12-23T20:48:54.856Z,6.10
2022-12-23T20:50:57.234Z,6.10
2022-12-23T20:52:59.093Z,6.00
2022-12-23T20:55:01.772Z,6.00
2022-12-23T20:57:04.003Z,6.10
2022-12-23T20:59:05.934Z,6.00
2022-12-23T21:01:12.471Z,6.00
2022-12-23T21:03:14.783Z,6.00
2022-12-23T21:05:16.748Z,6.00
2022-12-23T21:07:18.665Z,6.10
2022-12-23T21:09:20.781Z,6.00
2022-12-23T21:11:23.379Z,6.00
2022-12-23T21:13:25.310Z,6.10
2022-12-23T21:15:27.221Z,6.10
2022-12-23T21:17:31.206Z,6.00
2022-12-23T21:19:34.808Z,5.90
2022-12-23T21:21:36.867Z,6.00
2022-12-23T21:23:39.912Z,5.90
2022-12-23T21:25:41.847Z,5.90
2022-12-23T21:27:43.813Z,5.90
2022-12-23T21:29:45.659Z,6.00
2022-12-23T21:31:47.863Z,5.90
2022-12-23T21:33:51.905Z,5.90
2022-12-23T21:35:54.245Z,5.80
2022-12-23T21:37:56.304Z,5.80
2022-12-23T21:39:58.227Z,5.80
2022-12-23T21:42:00.107Z,5.90
2022-12-23T21:44:02.913Z,5.90
2022-12-23T21:46:08.949Z,5.90
2022-12-23T21:48:12.962Z,5.90
2022-12-23T21:50:14.857Z,5.80
2022-12-23T21:52:16.812Z,5.80
2022-12-23T21:54:19.039Z,5.80
2022-12-23T21:56:26.890Z,5.90
2022-12-23T21:58:29.075Z,5.80
2022-12-23T22:00:30.965Z,5.80
2022-12-23T22:02:32.957Z,5.90
2022-12-23T22:04:34.836Z,5.80
2022-12-23T22:06:39.287Z,5.80
2022-12-23T22:08:54.687Z,5.80
2022-12-23T22:10:56.869Z,5.80
2022-12-23T22:12:58.742Z,5.70
2022-12-23T22:15:01.986Z,5.70
2022-12-23T22:17:06.915Z,5.70
2022-12-23T22:19:11.191Z,5.60
2022-12-23T22:21:20.347Z,5.60
2022-12-23T22:23:22.258Z,5.60
2022-12-23T22:25:24.223Z,5.50
2022-12-23T22:27:27.153Z,5.50
2022-12-23T22:29:29.158Z,5.50
2022-12-23T22:31:37.483Z,5.50
2022-12-23T22:33:39.484Z,5.50
2022-12-23T22:35:41.545Z,5.40
2022-12-23T22:37:43.994Z,5.50
2022-12-23T22:39:45.867Z,5.50
2022-12-23T22:41:48.039Z,5.50
2022-12-23T22:43:51.087Z,5.50
2022-12-23T22:46:01.099Z,5.60
2022-12-23T22:48:03.291Z,5.70
2022-12-23T22:50:05.555Z,5.50
2022-12-23T22:52:07.563Z,5.50
2022-12-23T22:54:10.365Z,5.40
2022-12-23T22:56:14.657Z,5.40
2022-12-23T22:58:16.688Z,5.50
2022-12-23T23:00:19.805Z,5.60
2022-12-23T23:02:21.730Z,5.60
2022-12-23T23:04:23.796Z,5.60
2022-12-23T23:06:31.968Z,5.60
2022-12-23T23:08:34.644Z,5.50
2022-12-23T23:10:37.863Z,5.40
2022-12-23T23:12:40.060Z,5.50
2022-12-23T23:14:53.857Z,5.40
2022-12-23T23:16:55.830Z,5.40
2022-12-23T23:18:59.124Z,5.30
2022-12-23T23:21:01.129Z,5.40
2022-12-23T23:23:02.986Z,5.40
2022-12-23T23:25:05.582Z,5.40
2022-12-23T23:27:07.562Z,5.30
2022-12-23T23:29:09.526Z,5.40
2022-12-23T23:33:34.523Z,5.30
2022-12-23T23:35:36.847Z,5.30
2022-12-23T23:37:38.909Z,5.60
2022-12-23T23:39:42.800Z,5.30
2022-12-23T23:41:44.824Z,5.40
2022-12-23T23:43:46.790Z,5.30
2022-12-23T23:45:49.566Z,5.30
2022-12-23T23:47:52.538Z,5.20
2022-12-23T23:49:54.442Z,5.30
2022-12-23T23:51:56.326Z,5.30
2022-12-23T23:53:58.292Z,5.30
2022-12-23T23:56:06.373Z,5.10
2022-12-23T23:58:08.802Z,5.10
